Time;durP1;ratioP1;P1;durP2;ratioP2;P2;SDS_P1;SDS_P2;PMS_P1;PMS_P2;Temp;Humidity;BMP_temperature;BMP_pressure;BME280_temperature;BME280_humidity;BME280_pressure;Samples;Min_cycle;Max_cycle;Signal;HPM_P1;HPM_P2
2021/10/29 00:00:10;;;;;;;58.33;46.40;;;6.50;99.90;;;;;;4989855;28;20409;-81
2021/10/29 00:02:36;;;;;;;58.17;48.45;;;6.50;99.90;;;;;;4990926;28;20409;-81
2021/10/29 00:05:03;;;;;;;58.90;48.33;;;6.40;99.90;;;;;;4991611;28;20451;-81
2021/10/29 00:07:29;;;;;;;61.42;47.53;;;6.40;99.90;;;;;;4990665;28;20439;-81
2021/10/29 00:09:55;;;;;;;55.17;45.87;;;6.40;99.90;;;;;;4990929;28;20395;-81
2021/10/29 00:12:23;;;;;;;58.53;46.90;;;6.40;99.90;;;;;;4990120;28;20500;-81
2021/10/29 00:14:51;;;;;;;62.78;49.38;;;6.40;99.90;;;;;;4989854;28;20393;-81
2021/10/29 00:17:17;;;;;;;57.63;47.85;;;6.30;99.90;;;;;;4990187;28;20407;-81
2021/10/29 00:19:43;;;;;;;66.13;50.53;;;6.40;99.90;;;;;;4990803;28;20389;-81
2021/10/29 00:22:08;;;;;;;62.97;49.90;;;6.30;99.90;;;;;;4990188;28;20400;-81
2021/10/29 00:24:34;;;;;;;59.55;48.15;;;6.40;99.90;;;;;;4991573;28;20381;-82
2021/10/29 00:27:00;;;;;;;62.97;49.40;;;6.40;99.90;;;;;;4990980;28;20392;-82
2021/10/29 00:29:25;;;;;;;63.10;50.50;;;6.40;99.90;;;;;;4990727;28;20752;-81
2021/10/29 00:31:51;;;;;;;67.18;52.28;;;6.30;99.90;;;;;;4990798;28;20413;-82
2021/10/29 00:34:17;;;;;;;62.45;50.25;;;6.30;99.90;;;;;;4990293;28;20428;-82
2021/10/29 00:36:43;;;;;;;68.75;53.78;;;6.30;99.90;;;;;;4990730;28;20759;-82
2021/10/29 00:39:08;;;;;;;65.50;52.10;;;6.30;99.90;;;;;;4989899;28;20893;-82
2021/10/29 00:41:35;;;;;;;65.60;51.58;;;6.30;99.90;;;;;;4990374;28;20397;-81
2021/10/29 00:44:01;;;;;;;65.18;50.28;;;6.30;99.90;;;;;;4991099;28;20389;-81
2021/10/29 00:46:27;;;;;;;58.53;49.33;;;6.40;99.90;;;;;;4983646;28;20459;-81
2021/10/29 00:48:53;;;;;;;58.88;48.05;;;6.30;99.90;;;;;;4982924;28;20384;-81
2021/10/29 00:51:20;;;;;;;67.18;52.08;;;6.20;99.90;;;;;;4990336;28;20462;-82
2021/10/29 00:53:46;;;;;;;66.23;51.43;;;6.10;99.90;;;;;;4990416;28;20418;-82
2021/10/29 00:56:12;;;;;;;60.03;47.85;;;6.00;99.90;;;;;;4990644;28;20958;-81
2021/10/29 00:58:38;;;;;;;60.20;46.63;;;6.00;99.90;;;;;;4990074;28;20488;-82
2021/10/29 01:01:04;;;;;;;56.87;46.77;;;5.90;99.90;;;;;;4990389;28;20776;-81
2021/10/29 01:03:30;;;;;;;57.85;47.75;;;5.80;99.90;;;;;;4990714;28;20396;-80
2021/10/29 01:05:58;;;;;;;56.45;47.15;;;5.70;99.90;;;;;;4989027;28;20389;-82
2021/10/29 01:08:24;;;;;;;58.60;47.93;;;5.70;99.90;;;;;;4989830;28;20416;-82
2021/10/29 01:10:50;;;;;;;56.37;45.33;;;5.60;99.90;;;;;;4989847;28;20412;-82
2021/10/29 01:13:16;;;;;;;52.97;43.67;;;5.50;99.90;;;;;;4990627;28;20951;-81
2021/10/29 01:15:43;;;;;;;53.77;43.07;;;5.50;99.90;;;;;;4990963;28;20388;-82
2021/10/29 01:18:08;;;;;;;54.88;44.20;;;5.40;99.90;;;;;;4991277;28;20385;-82
2021/10/29 01:20:34;;;;;;;54.45;45.40;;;5.30;99.90;;;;;;4990559;28;20392;-82
2021/10/29 01:23:00;;;;;;;56.37;46.67;;;5.20;99.90;;;;;;4990837;28;20403;-81
2021/10/29 01:25:26;;;;;;;57.87;46.57;;;5.10;99.90;;;;;;4989000;28;21011;-82
2021/10/29 01:27:52;;;;;;;57.85;45.17;;;5.10;99.90;;;;;;4989888;28;20759;-81
2021/10/29 01:30:18;;;;;;;55.28;44.08;;;5.00;99.90;;;;;;4991144;28;20391;-81
2021/10/29 01:32:44;;;;;;;56.97;45.10;;;5.00;99.90;;;;;;4991016;28;20393;-81
2021/10/29 01:35:11;;;;;;;56.67;44.50;;;5.00;99.90;;;;;;4992909;28;20423;-81
2021/10/29 01:37:38;;;;;;;53.27;43.63;;;4.90;99.90;;;;;;4990703;28;20452;-82
2021/10/29 01:40:06;;;;;;;57.45;46.33;;;4.80;99.90;;;;;;4991542;28;20432;-82
2021/10/29 01:42:32;;;;;;;56.20;45.65;;;4.80;99.90;;;;;;4992244;28;20377;-81
2021/10/29 01:44:58;;;;;;;54.92;46.03;;;4.80;99.90;;;;;;4990641;28;20415;-82
2021/10/29 01:47:24;;;;;;;53.73;44.60;;;4.80;99.90;;;;;;4990141;28;20450;-82
2021/10/29 01:49:49;;;;;;;51.85;43.33;;;4.70;99.90;;;;;;4991792;28;20864;-81
2021/10/29 01:52:15;;;;;;;54.75;44.38;;;4.60;99.90;;;;;;4991714;28;20424;-81
2021/10/29 01:54:41;;;;;;;56.70;45.60;;;4.70;99.90;;;;;;4991421;28;20456;-82
2021/10/29 01:57:07;;;;;;;67.27;50.40;;;4.60;99.90;;;;;;4990765;28;21047;-82
2021/10/29 01:59:33;;;;;;;61.33;48.73;;;4.60;99.90;;;;;;4989987;28;20476;-81
2021/10/29 02:01:59;;;;;;;58.80;46.72;;;4.60;99.90;;;;;;4987498;28;20484;-82
2021/10/29 02:04:25;;;;;;;59.75;47.25;;;4.50;99.90;;;;;;4988092;28;20871;-82
2021/10/29 02:06:51;;;;;;;63.25;49.60;;;4.50;99.90;;;;;;4989422;28;20381;-81
2021/10/29 02:09:16;;;;;;;63.03;49.75;;;4.50;99.90;;;;;;4988727;28;20498;-83
2021/10/29 02:11:43;;;;;;;59.95;46.28;;;4.50;99.90;;;;;;4989248;28;20547;-82
2021/10/29 02:14:09;;;;;;;57.28;46.13;;;4.50;99.90;;;;;;4988052;28;20396;-82
2021/10/29 02:16:35;;;;;;;51.13;44.30;;;4.40;99.90;;;;;;4991434;28;20887;-81
2021/10/29 02:19:01;;;;;;;58.95;48.05;;;4.30;99.90;;;;;;4992581;28;20560;-82
2021/10/29 02:21:28;;;;;;;60.25;47.78;;;4.30;99.90;;;;;;4992952;28;20412;-82
2021/10/29 02:23:54;;;;;;;57.90;45.87;;;4.20;99.90;;;;;;4991743;28;20405;-82
2021/10/29 02:26:20;;;;;;;57.93;45.43;;;4.20;99.90;;;;;;4992694;28;20400;-81
2021/10/29 02:28:45;;;;;;;62.38;49.25;;;4.20;99.90;;;;;;4992124;28;20412;-81
2021/10/29 02:31:11;;;;;;;63.20;47.50;;;4.10;99.90;;;;;;4991561;28;20409;-81
2021/10/29 02:33:36;;;;;;;58.90;46.75;;;4.00;99.90;;;;;;4992560;28;20451;-82
2021/10/29 02:36:03;;;;;;;56.90;45.17;;;4.00;99.90;;;;;;4992770;28;20867;-81
2021/10/29 02:38:28;;;;;;;53.33;43.50;;;3.90;99.90;;;;;;4986921;28;21034;-81
2021/10/29 02:40:55;;;;;;;51.78;42.70;;;3.90;99.90;;;;;;4991224;28;20480;-82
2021/10/29 02:43:21;;;;;;;53.78;43.35;;;3.80;99.90;;;;;;4992596;28;20802;-82
2021/10/29 02:45:46;;;;;;;56.53;44.05;;;3.80;99.90;;;;;;4992816;28;20385;-82
2021/10/29 02:48:12;;;;;;;53.20;43.80;;;3.80;99.90;;;;;;4992990;28;20439;-81
2021/10/29 02:50:38;;;;;;;55.20;44.70;;;3.70;99.90;;;;;;4992586;28;20417;-82
2021/10/29 02:53:08;;;;;;;54.83;44.47;;;3.60;99.90;;;;;;4992186;28;20408;-81
2021/10/29 02:55:34;;;;;;;56.15;44.45;;;3.60;99.90;;;;;;4991207;28;20396;-81
2021/10/29 02:58:00;;;;;;;66.35;50.42;;;3.50;99.90;;;;;;4992761;28;20381;-82
2021/10/29 03:00:26;;;;;;;56.50;45.58;;;3.40;99.90;;;;;;4992552;28;20519;-82
2021/10/29 03:02:51;;;;;;;54.58;43.78;;;3.40;99.90;;;;;;4992981;28;20934;-82
2021/10/29 03:05:17;;;;;;;53.55;42.92;;;3.40;99.90;;;;;;4992896;28;20419;-82
2021/10/29 03:07:43;;;;;;;51.20;43.07;;;3.50;99.90;;;;;;4991913;28;20997;-82
2021/10/29 03:10:10;;;;;;;49.67;41.67;;;3.40;99.90;;;;;;4991583;28;20922;-82
2021/10/29 03:12:37;;;;;;;50.65;42.53;;;3.40;99.90;;;;;;4990648;28;20941;-82
2021/10/29 03:15:04;;;;;;;49.95;40.17;;;3.40;99.90;;;;;;4990852;28;20759;-82
2021/10/29 03:17:30;;;;;;;49.38;40.72;;;3.30;99.90;;;;;;4991906;28;20393;-82
2021/10/29 03:19:56;;;;;;;49.97;41.13;;;3.20;99.90;;;;;;4992292;28;20847;-82
2021/10/29 03:22:21;;;;;;;48.63;39.53;;;3.20;99.90;;;;;;4992577;28;20643;-82
2021/10/29 03:24:47;;;;;;;48.70;41.17;;;3.20;99.90;;;;;;4993187;28;20393;-82
2021/10/29 03:27:12;;;;;;;57.58;44.72;;;3.20;99.90;;;;;;4990970;28;20475;-82
2021/10/29 03:29:39;;;;;;;50.90;41.63;;;3.20;99.90;;;;;;4993084;28;20393;-83
2021/10/29 03:32:06;;;;;;;58.07;45.40;;;3.10;99.90;;;;;;4992184;28;20973;-81
2021/10/29 03:34:32;;;;;;;50.97;43.05;;;3.10;99.90;;;;;;4993497;28;20411;-81
2021/10/29 03:36:57;;;;;;;52.17;43.87;;;3.00;99.90;;;;;;4993556;28;20451;-83
2021/10/29 03:39:29;;;;;;;61.67;48.15;;;3.00;99.90;;;;;;4993403;28;20392;-82
2021/10/29 03:42:00;;;;;;;68.35;50.90;;;3.10;99.90;;;;;;4994200;28;20381;-82
2021/10/29 03:44:40;;;;;;;62.65;49.22;;;3.00;99.90;;;;;;4993735;28;20396;-82
2021/10/29 03:47:05;;;;;;;59.75;45.65;;;3.00;99.90;;;;;;4992564;28;20472;-83
2021/10/29 03:49:36;;;;;;;61.15;47.28;;;3.00;99.90;;;;;;4993543;28;20460;-80
2021/10/29 03:52:17;;;;;;;59.13;47.03;;;3.00;99.90;;;;;;4990523;28;20408;-82
2021/10/29 03:54:46;;;;;;;55.28;44.67;;;2.90;99.90;;;;;;4989178;28;20432;-81
2021/10/29 03:59:46;;;;;;;60.47;46.05;;;2.90;99.90;;;;;;4990952;28;20425;-81
2021/10/29 04:02:12;;;;;;;61.42;46.97;;;3.10;99.90;;;;;;4990936;28;20429;-82
2021/10/29 04:04:38;;;;;;;61.75;46.75;;;3.00;99.90;;;;;;4990694;28;20393;-81
2021/10/29 04:07:04;;;;;;;53.72;42.92;;;2.90;99.90;;;;;;4990770;28;20447;-82
2021/10/29 04:09:29;;;;;;;53.65;43.63;;;2.90;99.90;;;;;;4990749;28;20447;-83
2021/10/29 04:11:55;;;;;;;57.60;45.22;;;2.80;99.90;;;;;;4990595;28;20922;-82
2021/10/29 04:14:25;;;;;;;55.97;44.38;;;2.80;99.90;;;;;;4990252;28;20385;-81
2021/10/29 04:16:51;;;;;;;50.40;40.35;;;2.80;99.90;;;;;;4989181;28;20401;-82
2021/10/29 04:19:17;;;;;;;50.53;42.15;;;2.70;99.90;;;;;;4991032;28;20963;-82
2021/10/29 04:21:42;;;;;;;52.95;42.28;;;2.70;99.90;;;;;;4989757;28;20399;-82
2021/10/29 04:24:08;;;;;;;51.05;40.85;;;2.70;99.90;;;;;;4990628;28;20432;-82
2021/10/29 04:26:36;;;;;;;49.75;40.25;;;2.60;99.90;;;;;;4989845;28;20409;-81
2021/10/29 04:29:12;;;;;;;50.58;39.88;;;2.60;99.90;;;;;;4984353;28;20420;-81
2021/10/29 04:31:46;;;;;;;51.05;40.88;;;2.50;99.90;;;;;;4985340;28;20767;-81
2021/10/29 04:34:12;;;;;;;53.38;42.97;;;2.40;99.90;;;;;;4989551;28;20884;-81
2021/10/29 04:36:37;;;;;;;59.53;43.10;;;2.50;99.90;;;;;;4989813;28;20389;-82
2021/10/29 04:39:09;;;;;;;58.10;43.63;;;2.40;99.90;;;;;;4989033;28;20462;-81
2021/10/29 04:41:35;;;;;;;52.33;41.08;;;2.40;99.90;;;;;;4990695;28;20392;-81
2021/10/29 04:44:01;;;;;;;48.83;39.85;;;2.40;99.90;;;;;;4991309;28;20385;-81
2021/10/29 04:46:26;;;;;;;49.10;40.13;;;2.30;99.90;;;;;;4990097;28;20875;-83
2021/10/29 04:48:52;;;;;;;54.47;42.20;;;2.30;99.90;;;;;;4991108;28;20396;-81
2021/10/29 04:51:17;;;;;;;55.17;41.20;;;2.30;99.90;;;;;;4990702;28;20412;-83
2021/10/29 04:53:43;;;;;;;50.80;41.22;;;2.30;99.90;;;;;;4992353;28;20480;-81
2021/10/29 04:56:09;;;;;;;51.30;40.90;;;2.20;99.90;;;;;;4991162;28;20495;-81
2021/10/29 04:58:34;;;;;;;51.63;41.80;;;2.20;99.90;;;;;;4990240;28;20396;-82
2021/10/29 05:01:00;;;;;;;52.22;42.42;;;2.20;99.90;;;;;;4991884;28;20451;-82
2021/10/29 05:03:26;;;;;;;53.20;42.90;;;2.20;99.90;;;;;;4992208;28;20876;-83
2021/10/29 05:05:51;;;;;;;53.07;42.70;;;2.20;99.90;;;;;;4992391;28;20737;-83
2021/10/29 05:08:17;;;;;;;55.77;43.97;;;2.20;99.90;;;;;;4993325;28;20380;-84
2021/10/29 05:10:42;;;;;;;65.20;47.45;;;2.20;99.90;;;;;;4994765;28;20441;-82
2021/10/29 05:13:08;;;;;;;53.85;42.45;;;2.10;99.90;;;;;;4986518;28;20883;-82
2021/10/29 05:15:34;;;;;;;50.65;41.25;;;2.10;99.90;;;;;;4992102;28;20385;-82
2021/10/29 05:18:01;;;;;;;51.17;41.20;;;2.10;99.90;;;;;;4991257;28;20396;-82
2021/10/29 05:20:27;;;;;;;56.25;43.17;;;2.10;99.90;;;;;;4992334;28;20472;-81
2021/10/29 05:22:52;;;;;;;50.42;41.80;;;2.00;99.90;;;;;;4991806;28;20539;-80
2021/10/29 05:25:18;;;;;;;52.65;41.40;;;2.00;99.90;;;;;;4991698;28;20945;-81
2021/10/29 05:27:44;;;;;;;54.60;42.22;;;2.00;99.90;;;;;;4991518;28;20875;-83
2021/10/29 05:30:10;;;;;;;54.67;42.57;;;2.00;99.90;;;;;;4990085;28;20385;-83
2021/10/29 05:32:36;;;;;;;56.38;44.40;;;1.90;99.90;;;;;;4987025;28;20910;-82
2021/10/29 05:35:04;;;;;;;55.95;44.67;;;1.90;99.90;;;;;;4989984;28;20859;-82
2021/10/29 05:37:31;;;;;;;54.63;44.22;;;1.90;99.90;;;;;;4989369;28;20393;-81
2021/10/29 05:39:58;;;;;;;54.00;43.72;;;1.90;99.90;;;;;;4987965;28;21291;-83
2021/10/29 05:42:27;;;;;;;59.25;44.10;;;1.90;99.90;;;;;;4988439;28;20389;-81
2021/10/29 05:44:53;;;;;;;55.10;43.03;;;1.90;99.90;;;;;;4988554;28;20463;-82
2021/10/29 05:47:19;;;;;;;55.38;42.80;;;1.90;99.90;;;;;;4988687;28;20400;-81
2021/10/29 05:49:46;;;;;;;52.65;41.90;;;1.90;99.90;;;;;;4990164;28;20447;-81
2021/10/29 05:52:17;;;;;;;54.55;42.17;;;1.90;99.90;;;;;;4993132;28;20400;-81
2021/10/29 05:55:12;;;;;;;51.22;41.00;;;1.90;99.90;;;;;;4991429;28;20396;-82
2021/10/29 05:57:37;;;;;;;52.60;41.87;;;1.90;99.90;;;;;;4991660;28;20408;-82
2021/10/29 06:00:04;;;;;;;52.17;41.50;;;1.90;99.90;;;;;;4991297;28;20381;-83
2021/10/29 06:02:29;;;;;;;56.17;44.03;;;1.90;99.90;;;;;;4992524;28;20451;-83
2021/10/29 06:04:55;;;;;;;57.03;44.73;;;1.90;99.90;;;;;;4992738;28;20828;-82
2021/10/29 06:07:20;;;;;;;56.90;44.43;;;1.90;99.90;;;;;;4992615;28;20478;-82
2021/10/29 06:09:46;;;;;;;54.20;42.72;;;2.00;99.90;;;;;;4991756;28;20427;-82
2021/10/29 06:12:12;;;;;;;56.33;43.63;;;2.00;99.90;;;;;;4992528;28;20452;-80
2021/10/29 06:14:38;;;;;;;61.20;46.33;;;2.00;99.90;;;;;;4993083;28;20848;-81
2021/10/29 06:17:06;;;;;;;57.95;45.45;;;2.10;99.90;;;;;;4992215;28;20372;-81
2021/10/29 06:19:32;;;;;;;60.53;44.63;;;2.10;99.90;;;;;;4988716;28;20800;-83
2021/10/29 06:24:53;;;;;;;57.97;43.20;;;2.20;99.90;;;;;;4975081;28;20989;-83
2021/10/29 06:29:48;;;;;;;50.38;41.60;;;2.30;99.90;;;;;;4991597;28;20381;-82
2021/10/29 06:32:20;;;;;;;57.30;46.72;;;2.30;99.90;;;;;;4991856;28;20408;-82
2021/10/29 06:34:46;;;;;;;57.55;47.35;;;2.40;99.90;;;;;;4991830;28;20385;-81
2021/10/29 06:37:16;;;;;;;55.08;45.80;;;2.40;99.90;;;;;;4991303;28;20382;-81
2021/10/29 06:39:43;;;;;;;59.28;46.63;;;2.50;99.90;;;;;;4990712;28;20422;-82
2021/10/29 06:42:14;;;;;;;56.80;45.92;;;2.60;99.90;;;;;;4990366;28;20408;-81
2021/10/29 06:45:45;;;;;;;58.53;44.30;;;2.70;99.90;;;;;;4990211;28;20428;-81
2021/10/29 07:41:04;;;;;;;64.65;49.42;;;5.70;99.90;;;;;;4990563;28;20447;-81
2021/10/29 07:43:49;;;;;;;65.60;49.42;;;5.90;99.90;;;;;;4989835;28;20401;-82
2021/10/29 07:46:16;;;;;;;66.47;51.10;;;6.00;99.90;;;;;;4997892;28;20466;-81
2021/10/29 07:48:45;;;;;;;64.78;49.80;;;6.20;99.90;;;;;;4985232;28;20448;-81
2021/10/29 07:51:11;;;;;;;65.68;50.35;;;6.20;99.90;;;;;;4983834;28;20445;-81
2021/10/29 07:53:37;;;;;;;66.43;50.37;;;6.40;99.90;;;;;;4984099;28;20402;-82
2021/10/29 07:56:05;;;;;;;67.27;50.53;;;6.40;99.90;;;;;;4990725;28;20387;-81
2021/10/29 07:58:32;;;;;;;64.53;49.53;;;6.50;99.90;;;;;;4984730;28;20396;-81
2021/10/29 08:00:59;;;;;;;65.73;50.67;;;6.60;99.90;;;;;;4986077;28;20416;-81
2021/10/29 08:03:25;;;;;;;63.67;48.80;;;6.70;99.90;;;;;;4988213;28;20485;-81
2021/10/29 08:05:50;;;;;;;65.50;50.20;;;6.80;99.90;;;;;;4990169;28;20891;-81
2021/10/29 08:08:17;;;;;;;64.37;50.83;;;6.80;99.90;;;;;;4987439;28;20483;-82
2021/10/29 08:10:44;;;;;;;59.92;46.83;;;7.00;99.90;;;;;;4990435;28;20492;-82
2021/10/29 08:13:10;;;;;;;62.45;48.70;;;7.10;99.90;;;;;;4990272;28;20451;-82
2021/10/29 08:15:37;;;;;;;61.47;47.53;;;7.20;99.90;;;;;;4990893;28;20899;-81
2021/10/29 08:18:07;;;;;;;60.40;48.50;;;7.30;99.90;;;;;;4990825;28;20791;-81
2021/10/29 08:20:37;;;;;;;60.30;46.97;;;7.40;99.90;;;;;;4989876;28;20732;-80
2021/10/29 08:23:05;;;;;;;59.30;46.63;;;7.50;99.90;;;;;;4987673;28;20420;-82
2021/10/29 08:25:31;;;;;;;59.77;48.00;;;7.70;99.90;;;;;;4990611;28;20535;-82
2021/10/29 08:27:57;;;;;;;55.83;44.60;;;7.80;99.90;;;;;;4989200;28;20452;-82
2021/10/29 08:30:24;;;;;;;56.80;44.93;;;7.90;99.90;;;;;;4989416;28;20397;-81
2021/10/29 08:32:50;;;;;;;53.75;43.03;;;8.10;99.90;;;;;;4988877;28;20416;-82
2021/10/29 08:35:18;;;;;;;48.60;41.28;;;8.30;99.90;;;;;;4989305;28;20773;-82
2021/10/29 08:37:45;;;;;;;49.17;40.63;;;8.40;99.90;;;;;;4991363;28;20397;-82
2021/10/29 08:40:11;;;;;;;47.97;40.70;;;8.60;99.90;;;;;;4989120;28;20400;-81
2021/10/29 08:42:38;;;;;;;45.58;38.53;;;8.70;99.90;;;;;;4990167;28;20560;-81
2021/10/29 08:45:06;;;;;;;40.40;35.28;;;8.90;99.90;;;;;;4990572;28;20457;-82
2021/10/29 08:47:36;;;;;;;44.97;37.60;;;9.00;99.90;;;;;;4992266;28;20763;-81
2021/10/29 08:50:04;;;;;;;41.05;35.65;;;9.20;99.90;;;;;;4990881;28;20939;-82
2021/10/29 08:52:30;;;;;;;40.20;34.60;;;9.30;99.90;;;;;;4988668;28;20499;-82
2021/10/29 08:54:56;;;;;;;38.77;34.53;;;9.50;99.90;;;;;;4989616;28;20484;-82
2021/10/29 08:57:23;;;;;;;36.55;32.67;;;9.60;99.90;;;;;;4990014;28;20397;-81
2021/10/29 08:59:52;;;;;;;41.25;35.05;;;9.70;99.90;;;;;;4988868;28;20440;-82
2021/10/29 09:02:27;;;;;;;38.83;32.80;;;9.80;99.90;;;;;;4987554;28;20737;-80
2021/10/29 09:04:59;;;;;;;37.45;31.90;;;9.80;99.90;;;;;;4982684;28;20388;-81
2021/10/29 09:07:39;;;;;;;34.85;30.92;;;9.90;99.90;;;;;;4988033;28;20399;-82
2021/10/29 09:10:50;;;;;;;33.33;29.73;;;10.10;99.90;;;;;;4986350;28;20872;-82
2021/10/29 09:33:24;;;;;;;30.25;27.08;;;10.80;99.90;;;;;;4993673;28;20478;-82
2021/10/29 09:35:42;;;;;;;30.13;26.92;;;10.90;99.90;;;;;;4993049;28;20409;-82
2021/10/29 09:38:14;;;;;;;29.25;26.13;;;11.10;99.90;;;;;;4993978;28;20377;-82
2021/10/29 09:41:03;;;;;;;29.05;26.02;;;11.30;99.90;;;;;;4992491;28;20428;-81
2021/10/29 09:43:33;;;;;;;28.90;25.90;;;11.40;99.90;;;;;;4989041;28;20408;-82
2021/10/29 09:46:03;;;;;;;28.30;25.30;;;11.50;99.90;;;;;;4992873;28;20415;-82
2021/10/29 09:48:44;;;;;;;28.00;25.10;;;11.70;99.90;;;;;;4993893;28;20484;-82
2021/10/29 09:51:11;;;;;;;27.63;24.67;;;11.80;99.90;;;;;;4992671;28;20557;-81
2021/10/29 09:53:44;;;;;;;27.67;24.70;;;11.80;99.90;;;;;;4993882;28;20396;-80
2021/10/29 09:56:31;;;;;;;31.63;25.10;;;11.80;99.90;;;;;;4994837;28;20393;-79
2021/10/29 09:59:00;;;;;;;30.35;25.08;;;11.80;99.90;;;;;;4992870;28;20410;-80
2021/10/29 10:01:36;;;;;;;25.75;23.02;;;11.70;99.90;;;;;;4992494;28;20585;-80
2021/10/29 10:04:04;;;;;;;26.30;23.50;;;11.70;99.90;;;;;;4994720;28;20381;-79
2021/10/29 10:06:37;;;;;;;25.08;22.48;;;11.70;99.90;;;;;;4994742;28;20400;-79
2021/10/29 10:09:04;;;;;;;26.52;23.83;;;11.70;99.90;;;;;;4996436;28;20398;-79
2021/10/29 10:11:32;;;;;;;25.90;23.10;;;11.80;99.90;;;;;;4995441;28;20455;-79
2021/10/29 10:13:58;;;;;;;26.63;22.55;;;11.80;99.90;;;;;;4994462;28;20786;-79
2021/10/29 10:16:27;;;;;;;25.40;22.70;;;11.80;99.90;;;;;;4995561;28;20379;-79
2021/10/29 10:18:55;;;;;;;24.00;21.40;;;11.90;99.90;;;;;;4994480;28;20435;-80
2021/10/29 10:21:22;;;;;;;23.08;20.60;;;12.00;99.90;;;;;;4977108;28;20756;-79
2021/10/29 10:23:52;;;;;;;23.10;20.60;;;12.10;99.90;;;;;;4994074;28;20393;-79
2021/10/29 10:29:24;;;;;;;22.70;20.25;;;12.20;99.90;;;;;;4996462;28;20803;-79
2021/10/29 10:46:19;;;;;;;35.28;18.65;;;12.70;99.90;;;;;;4994855;28;20389;-80
2021/10/29 10:48:58;;;;;;;27.42;18.30;;;12.90;99.90;;;;;;4996064;28;20388;-80
2021/10/29 10:54:26;;;;;;;19.50;15.90;;;13.20;99.90;;;;;;4996524;28;20436;-79
2021/10/29 10:59:41;;;;;;;17.75;14.45;;;13.40;99.90;;;;;;4987576;28;20412;-79
2021/10/29 11:10:58;;;;;;;17.58;13.45;;;13.60;99.90;;;;;;4997109;28;20404;-80
2021/10/29 11:13:26;;;;;;;16.63;14.37;;;13.70;99.90;;;;;;4991852;28;20412;-82
2021/10/29 11:16:03;;;;;;;16.03;14.30;;;13.80;99.90;;;;;;4994390;28;20408;-79
2021/10/29 11:18:34;;;;;;;16.40;14.43;;;13.80;99.90;;;;;;4989044;28;20386;-80
2021/10/29 11:21:19;;;;;;;16.02;13.70;;;13.80;99.90;;;;;;4994856;28;20408;-79
2021/10/29 11:23:50;;;;;;;15.18;13.57;;;13.80;99.90;;;;;;4985891;28;20427;-80
2021/10/29 11:26:25;;;;;;;16.85;13.85;;;13.80;99.90;;;;;;4985889;28;20407;-80
2021/10/29 11:28:54;;;;;;;14.30;12.77;;;13.80;99.90;;;;;;4988623;28;20384;-81
2021/10/29 11:31:25;;;;;;;15.68;13.25;;;13.90;99.90;;;;;;4986872;28;20511;-81
2021/10/29 11:33:53;;;;;;;13.55;12.15;;;13.80;99.90;;;;;;4979175;28;20400;-80
2021/10/29 11:36:40;;;;;;;13.70;12.13;;;13.70;99.90;;;;;;4987729;28;20509;-81
2021/10/29 11:39:09;;;;;;;13.85;12.20;;;13.80;99.90;;;;;;4983201;28;20408;-81
2021/10/29 11:41:38;;;;;;;15.82;12.57;;;13.80;99.90;;;;;;4981752;28;20894;-81
2021/10/29 11:44:16;;;;;;;14.23;12.70;;;13.70;99.90;;;;;;4990409;28;20401;-80
2021/10/29 11:46:43;;;;;;;15.47;12.70;;;13.80;99.90;;;;;;4986501;28;20463;-81
2021/10/29 11:49:14;;;;;;;14.23;12.23;;;13.80;99.90;;;;;;4993507;28;20432;-81
2021/10/29 11:51:41;;;;;;;13.70;12.10;;;13.80;99.90;;;;;;4993077;28;20445;-81
2021/10/29 11:59:50;;;;;;;14.82;10.82;;;13.90;99.90;;;;;;4990288;28;20404;-81
2021/10/29 12:07:38;;;;;;;13.98;11.55;;;14.00;99.90;;;;;;4990075;28;20410;-79
2021/10/29 12:10:09;;;;;;;12.83;11.23;;;14.00;99.90;;;;;;4992502;28;20397;-81
2021/10/29 12:12:37;;;;;;;12.37;10.80;;;14.00;99.90;;;;;;4989581;28;20915;-78
2021/10/29 12:15:16;;;;;;;12.90;10.35;;;14.10;99.90;;;;;;4989196;28;20402;-81
2021/10/29 12:17:58;;;;;;;14.48;11.00;;;14.10;99.90;;;;;;4988423;28;20426;-80
2021/10/29 12:20:27;;;;;;;12.23;10.35;;;14.10;99.90;;;;;;4988511;28;20389;-80
2021/10/29 12:23:04;;;;;;;12.35;10.02;;;14.10;99.90;;;;;;4989364;28;20484;-80
2021/10/29 12:25:37;;;;;;;11.43;9.98;;;14.10;99.90;;;;;;4981804;28;20943;-82
2021/10/29 12:28:07;;;;;;;11.47;10.37;;;14.20;99.90;;;;;;4984477;28;20385;-83
2021/10/29 12:30:41;;;;;;;11.60;10.10;;;14.20;99.90;;;;;;4983070;28;20432;-82
2021/10/29 12:58:58;;;;;;;14.33;11.13;;;14.30;99.90;;;;;;4987831;28;20939;-81
2021/10/29 13:03:58;;;;;;;15.03;11.60;;;14.30;99.90;;;;;;4986392;28;20389;-81
2021/10/29 13:06:45;;;;;;;14.05;11.55;;;14.30;99.90;;;;;;4985545;28;20392;-81
2021/10/29 13:09:18;;;;;;;12.88;11.02;;;14.30;99.90;;;;;;4985535;28;20385;-80
2021/10/29 13:11:53;;;;;;;14.32;12.80;;;14.20;99.90;;;;;;4985316;28;20423;-80
2021/10/29 13:14:24;;;;;;;14.85;12.23;;;14.20;99.90;;;;;;4987614;28;20413;-81
2021/10/29 13:16:51;;;;;;;20.70;12.52;;;14.20;99.90;;;;;;4986210;28;20929;-83
2021/10/29 13:19:35;;;;;;;16.52;12.52;;;14.20;99.90;;;;;;4986434;28;20390;-80
2021/10/29 13:35:40;;;;;;;14.20;12.40;;;14.30;99.90;;;;;;4985649;28;20403;-81
2021/10/29 13:51:50;;;;;;;15.07;12.73;;;14.20;99.90;;;;;;4977152;28;20443;-83
2021/10/29 14:29:35;;;;;;;17.42;15.55;;;13.80;99.90;;;;;;4988070;28;20443;-82
2021/10/29 14:32:27;;;;;;;18.77;16.17;;;13.70;99.90;;;;;;4992106;28;20429;-81
2021/10/29 14:34:51;;;;;;;28.15;16.75;;;13.70;99.90;;;;;;4992141;28;20381;-82
2021/10/29 14:37:30;;;;;;;20.60;15.87;;;13.60;99.90;;;;;;4988623;28;20469;-82
2021/10/29 14:42:41;;;;;;;18.65;16.23;;;13.50;99.90;;;;;;4981916;28;20426;-82
2021/10/29 14:45:13;;;;;;;17.23;15.30;;;13.40;99.90;;;;;;4986653;28;20447;-81
2021/10/29 14:50:44;;;;;;;16.92;14.50;;;13.30;99.90;;;;;;4990145;28;20867;-82
2021/10/29 15:28:13;;;;;;;26.77;23.95;;;12.10;99.90;;;;;;4979817;28;20870;-82
2021/10/29 15:30:52;;;;;;;28.10;24.63;;;12.00;99.90;;;;;;4985025;28;20807;-83
2021/10/29 15:33:36;;;;;;;27.60;24.70;;;11.90;99.90;;;;;;4982590;28;20906;-82
2021/10/29 15:49:06;;;;;;;31.67;27.30;;;11.30;99.90;;;;;;4989029;28;20428;-82
2021/10/29 15:51:34;;;;;;;30.48;27.20;;;11.20;99.90;;;;;;4987329;28;20419;-81
2021/10/29 15:54:04;;;;;;;29.67;26.48;;;11.10;99.90;;;;;;4989138;28;20396;-81
2021/10/29 16:17:55;;;;;;;47.72;36.40;;;10.20;99.90;;;;;;4989282;28;20953;-83
2021/10/29 16:20:22;;;;;;;49.35;35.35;;;10.00;99.90;;;;;;4989535;28;20472;-82
2021/10/29 16:22:49;;;;;;;51.22;35.60;;;9.80;99.90;;;;;;4988076;28;20396;-82
2021/10/29 16:25:20;;;;;;;66.35;36.28;;;9.70;99.90;;;;;;4989287;28;20462;-82
2021/10/29 16:30:15;;;;;;;36.38;32.40;;;9.50;99.90;;;;;;4987645;28;20433;-82
2021/10/29 16:33:05;;;;;;;41.17;34.17;;;9.50;99.90;;;;;;4986210;28;20412;-83
2021/10/29 16:35:38;;;;;;;43.20;32.75;;;9.30;99.90;;;;;;4986096;28;20435;-82
2021/10/29 16:38:09;;;;;;;37.87;32.60;;;9.20;99.90;;;;;;4986596;28;20405;-83
2021/10/29 16:40:35;;;;;;;33.60;30.03;;;9.00;99.90;;;;;;4988254;28;20381;-83
2021/10/29 16:43:01;;;;;;;35.30;30.08;;;9.10;99.90;;;;;;4988243;28;20385;-84
2021/10/29 16:45:28;;;;;;;34.47;30.63;;;8.90;99.90;;;;;;4986622;28;20536;-83
2021/10/29 16:47:54;;;;;;;34.72;31.02;;;8.80;99.90;;;;;;4988223;28;20409;-82
2021/10/29 16:50:22;;;;;;;50.27;31.07;;;8.70;99.90;;;;;;4988914;28;20381;-83
2021/10/29 16:52:49;;;;;;;32.95;29.17;;;8.60;99.90;;;;;;4988027;28;20578;-82
2021/10/29 16:55:17;;;;;;;37.38;30.80;;;8.50;99.90;;;;;;4987562;28;20894;-83
2021/10/29 16:57:43;;;;;;;36.90;31.27;;;8.30;99.90;;;;;;4987703;28;20389;-82
2021/10/29 17:00:11;;;;;;;34.92;30.38;;;8.20;99.90;;;;;;4987481;28;20388;-82
2021/10/29 17:02:37;;;;;;;38.88;34.55;;;8.10;99.90;;;;;;4985866;28;20547;-82
2021/10/29 17:05:04;;;;;;;41.20;35.85;;;8.00;99.90;;;;;;4988255;28;21034;-82
2021/10/29 17:07:29;;;;;;;39.75;35.58;;;7.90;99.90;;;;;;4994796;28;20381;-82
2021/10/29 17:09:55;;;;;;;40.53;36.08;;;7.80;99.90;;;;;;4987032;28;20771;-82
2021/10/29 17:12:21;;;;;;;48.05;43.05;;;7.70;99.90;;;;;;4985532;28;20408;-83
2021/10/29 17:14:48;;;;;;;49.60;44.47;;;7.70;99.90;;;;;;4985646;28;20396;-83
2021/10/29 17:17:13;;;;;;;50.13;45.13;;;7.80;99.90;;;;;;4985211;28;20412;-82
2021/10/29 17:19:39;;;;;;;47.23;42.43;;;7.90;99.90;;;;;;4990339;28;20385;-82
2021/10/29 17:22:06;;;;;;;47.08;41.95;;;8.10;99.90;;;;;;4985757;28;20385;-82
2021/10/29 17:24:32;;;;;;;46.33;41.45;;;8.20;99.90;;;;;;4984480;28;20881;-82
2021/10/29 17:26:59;;;;;;;45.22;40.65;;;8.20;99.90;;;;;;4986488;28;20471;-82
2021/10/29 17:29:27;;;;;;;45.08;40.40;;;8.30;99.90;;;;;;4983777;28;20389;-82
2021/10/29 17:31:53;;;;;;;44.75;40.35;;;8.40;99.90;;;;;;4983389;28;20779;-82